createdAt,value
2022-12-31T00:00:00.730Z,42.60
2022-12-31T00:05:10.346Z,48.40
2022-12-31T00:10:17.324Z,41.60
2022-12-31T00:15:24.887Z,31.50
2022-12-31T00:20:31.968Z,28.80
2022-12-31T00:25:39.151Z,25.60
2022-12-31T00:30:46.091Z,26.20
2022-12-31T00:35:53.023Z,22.60
2022-12-31T00:40:59.935Z,21.70
2022-12-31T00:46:08.409Z,20.20
2022-12-31T00:51:17.817Z,19.50
2022-12-31T00:56:27.095Z,21.20
2022-12-31T01:01:36.384Z,18.70
2022-12-31T01:06:44.367Z,16.90
2022-12-31T01:11:53.104Z,18.40
2022-12-31T01:17:00.568Z,17.10
2022-12-31T01:22:07.486Z,15.40
2022-12-31T01:27:14.338Z,16.80
2022-12-31T01:32:21.186Z,15.80
2022-12-31T01:37:29.016Z,14.10
2022-12-31T01:42:35.987Z,13.10
2022-12-31T01:47:47.729Z,13.10
2022-12-31T01:52:58.104Z,12.70
2022-12-31T01:58:09.571Z,11.80
2022-12-31T02:03:17.276Z,11.40
2022-12-31T02:08:24.328Z,10.90
2022-12-31T02:13:31.435Z,12.00
2022-12-31T02:18:45.053Z,10.70
2022-12-31T02:24:19.501Z,8.90
2022-12-31T02:30:00.142Z,10.20
2022-12-31T02:35:13.465Z,9.70
2022-12-31T02:40:23.273Z,9.70
2022-12-31T02:45:39.074Z,9.80
2022-12-31T02:50:59.429Z,9.30
2022-12-31T02:56:13.149Z,7.90
2022-12-31T03:01:50.403Z,9.40
2022-12-31T03:06:57.640Z,8.00
2022-12-31T03:12:24.292Z,8.30
2022-12-31T03:17:31.218Z,7.70
2022-12-31T03:22:41.701Z,8.90
2022-12-31T03:27:48.846Z,7.90
2022-12-31T03:32:57.614Z,7.30
2022-12-31T03:38:05.211Z,6.20
2022-12-31T03:43:12.744Z,6.40
2022-12-31T03:48:20.006Z,5.80
2022-12-31T03:53:27.509Z,5.20
2022-12-31T03:58:34.559Z,6.10
2022-12-31T04:03:41.515Z,4.80
2022-12-31T04:08:48.471Z,5.40
2022-12-31T04:13:55.252Z,4.60
2022-12-31T04:19:02.121Z,5.30
2022-12-31T04:24:10.252Z,5.40
2022-12-31T04:29:17.112Z,5.80
2022-12-31T04:34:24.069Z,5.70
2022-12-31T04:39:31.271Z,6.20
2022-12-31T04:44:38.101Z,5.60
2022-12-31T04:49:44.959Z,5.20
2022-12-31T04:54:52.035Z,5.70
2022-12-31T04:59:59.723Z,5.40
2022-12-31T05:05:07.387Z,5.40
2022-12-31T05:10:16.002Z,5.30
2022-12-31T05:15:22.943Z,5.00
2022-12-31T05:20:30.048Z,5.60
2022-12-31T05:25:37.067Z,5.10
2022-12-31T05:30:45.052Z,6.00
2022-12-31T05:35:52.330Z,5.30
2022-12-31T05:41:07.024Z,5.70
2022-12-31T05:46:13.994Z,5.70
2022-12-31T05:51:20.902Z,5.10
2022-12-31T05:56:27.778Z,5.60
2022-12-31T06:01:34.761Z,6.30
2022-12-31T06:06:41.755Z,5.00
2022-12-31T06:11:48.939Z,4.70
2022-12-31T06:16:55.875Z,3.90
2022-12-31T06:22:03.225Z,4.40
2022-12-31T06:27:11.024Z,4.70
2022-12-31T06:32:18.572Z,5.00
2022-12-31T06:37:25.478Z,4.80
2022-12-31T06:42:32.741Z,4.30
2022-12-31T06:47:39.711Z,4.70
2022-12-31T06:52:46.576Z,4.60
2022-12-31T06:57:54.469Z,4.80
2022-12-31T07:03:26.831Z,5.80
2022-12-31T07:08:43.753Z,7.30
2022-12-31T07:13:59.987Z,5.30
2022-12-31T07:19:16.479Z,5.50
2022-12-31T07:24:25.544Z,5.00
2022-12-31T07:29:49.527Z,6.60
2022-12-31T07:35:04.739Z,6.00
2022-12-31T07:40:19.655Z,14.60
2022-12-31T07:45:34.777Z,7.60
2022-12-31T07:50:42.611Z,5.80
2022-12-31T07:55:53.473Z,8.40
2022-12-31T08:01:01.157Z,3.80
2022-12-31T08:06:17.913Z,4.70
2022-12-31T08:11:36.249Z,3.60
2022-12-31T08:16:44.475Z,4.40
2022-12-31T08:22:05.765Z,5.00
2022-12-31T08:27:21.807Z,7.30
2022-12-31T08:32:35.209Z,3.70
2022-12-31T08:37:45.717Z,2.90
2022-12-31T08:43:08.460Z,2.80
2022-12-31T08:48:26.611Z,2.30
2022-12-31T08:53:35.053Z,3.30
2022-12-31T08:58:52.572Z,2.60
2022-12-31T09:04:12.568Z,3.20
2022-12-31T09:09:28.355Z,2.60
2022-12-31T09:14:48.288Z,3.30
2022-12-31T09:19:56.405Z,3.10
2022-12-31T09:25:03.937Z,2.40
2022-12-31T09:30:22.745Z,2.90
2022-12-31T09:35:35.951Z,2.30
2022-12-31T09:41:12.631Z,2.60
2022-12-31T09:47:07.551Z,2.80
2022-12-31T09:52:34.882Z,3.60
2022-12-31T09:57:54.939Z,3.80
2022-12-31T10:03:23.082Z,2.20
2022-12-31T10:08:48.023Z,3.00
2022-12-31T10:14:10.511Z,2.50
2022-12-31T10:19:41.296Z,2.00
2022-12-31T10:25:37.678Z,2.10
2022-12-31T10:31:05.610Z,1.60
2022-12-31T10:36:21.690Z,1.70
2022-12-31T10:41:54.659Z,2.70
2022-12-31T10:47:33.056Z,3.10
2022-12-31T10:53:18.337Z,4.20
2022-12-31T10:58:55.090Z,2.70
2022-12-31T11:04:31.557Z,40.00
2022-12-31T11:10:17.235Z,13.20
2022-12-31T11:15:53.401Z,4.00
2022-12-31T11:21:16.317Z,2.80
2022-12-31T11:26:41.057Z,22.00
2022-12-31T11:32:07.688Z,4.50
2022-12-31T11:37:30.151Z,18.90
2022-12-31T11:42:47.808Z,11.20
2022-12-31T11:48:29.752Z,3.20
2022-12-31T11:53:57.548Z,2.50
2022-12-31T11:59:18.894Z,3.00
2022-12-31T12:04:26.392Z,2.30
2022-12-31T12:09:35.616Z,1.80
2022-12-31T12:14:45.439Z,2.60
2022-12-31T12:19:58.445Z,12.70
2022-12-31T12:25:17.035Z,2.40
2022-12-31T12:30:26.919Z,3.30
2022-12-31T12:35:36.228Z,3.60
2022-12-31T12:40:53.316Z,2.80
2022-12-31T12:46:07.647Z,2.10
2022-12-31T12:51:26.869Z,1.70
2022-12-31T12:56:43.279Z,2.00
2022-12-31T13:01:57.622Z,2.00
2022-12-31T13:07:15.561Z,2.10
2022-12-31T13:12:37.839Z,4.00
2022-12-31T13:18:05.148Z,6.60
2022-12-31T13:23:20.767Z,3.10
2022-12-31T13:28:29.026Z,3.80
2022-12-31T13:33:38.843Z,3.70
2022-12-31T13:38:50.103Z,3.20
2022-12-31T13:44:04.392Z,4.70
2022-12-31T13:49:20.948Z,3.90
2022-12-31T13:54:39.922Z,3.90
2022-12-31T13:59:52.843Z,3.40
2022-12-31T14:05:06.079Z,4.30
2022-12-31T14:10:17.421Z,3.20
2022-12-31T14:15:30.116Z,2.90
2022-12-31T14:20:48.043Z,2.60
2022-12-31T14:26:00.873Z,2.60
2022-12-31T14:31:21.216Z,2.20
2022-12-31T14:36:41.865Z,2.70
2022-12-31T14:41:59.164Z,3.10
2022-12-31T14:47:23.028Z,6.50
2022-12-31T14:52:33.011Z,2.40
2022-12-31T14:58:17.249Z,10.70
2022-12-31T15:03:26.838Z,7.30
2022-12-31T15:08:50.422Z,4.90
2022-12-31T15:14:21.117Z,4.60
2022-12-31T15:25:36.972Z,4.30
2022-12-31T15:30:49.662Z,3.90
2022-12-31T15:35:58.775Z,5.50
2022-12-31T15:41:16.965Z,3.00
2022-12-31T15:46:27.465Z,5.50
2022-12-31T15:51:39.937Z,4.40
2022-12-31T15:56:49.476Z,16.50
2022-12-31T16:01:58.129Z,5.20
2022-12-31T16:07:05.833Z,5.60
2022-12-31T16:12:20.335Z,4.00
2022-12-31T16:17:31.668Z,7.00
2022-12-31T16:22:40.967Z,16.90
2022-12-31T16:27:49.547Z,6.30
2022-12-31T16:33:00.195Z,7.30
2022-12-31T16:38:15.400Z,3.70
2022-12-31T16:43:37.821Z,3.90
2022-12-31T16:48:48.436Z,3.60
2022-12-31T16:53:55.633Z,4.60
2022-12-31T16:59:05.870Z,11.70
2022-12-31T17:04:18.494Z,20.40
2022-12-31T17:09:38.136Z,9.40
2022-12-31T17:14:52.623Z,5.10
2022-12-31T17:20:02.216Z,4.30
2022-12-31T17:25:32.431Z,5.30
2022-12-31T17:30:44.529Z,7.10
2022-12-31T17:36:16.539Z,5.20
2022-12-31T17:41:31.208Z,8.60
2022-12-31T17:46:44.021Z,8.40
2022-12-31T17:51:50.943Z,7.00
2022-12-31T17:56:59.307Z,5.90
2022-12-31T18:02:14.054Z,5.60
2022-12-31T18:07:21.567Z,9.00
2022-12-31T18:12:28.877Z,8.20
2022-12-31T18:17:36.248Z,4.50
2022-12-31T18:28:17.574Z,9.80
2022-12-31T18:33:32.316Z,3.80
2022-12-31T18:38:40.613Z,4.60
2022-12-31T18:43:48.521Z,4.10
2022-12-31T18:48:55.445Z,4.40
2022-12-31T18:54:03.176Z,6.00
2022-12-31T18:59:10.767Z,4.10
2022-12-31T19:04:27.103Z,3.90
2022-12-31T19:09:56.301Z,3.60
2022-12-31T19:15:02.699Z,4.30
2022-12-31T19:20:10.829Z,3.50
2022-12-31T19:25:22.062Z,3.10
2022-12-31T19:30:32.315Z,3.80
2022-12-31T19:35:44.233Z,3.80
2022-12-31T19:40:57.237Z,3.50
2022-12-31T19:46:16.640Z,3.70
2022-12-31T19:51:24.562Z,5.20
2022-12-31T19:56:31.710Z,5.40
2022-12-31T20:01:39.580Z,4.00
2022-12-31T20:06:46.817Z,4.50
2022-12-31T20:11:54.070Z,3.80
2022-12-31T20:17:01.090Z,4.40
2022-12-31T20:22:08.829Z,4.30
2022-12-31T20:27:18.568Z,4.60
2022-12-31T20:32:25.917Z,7.40
2022-12-31T20:37:32.966Z,5.80
2022-12-31T20:42:40.861Z,5.30
2022-12-31T20:47:48.515Z,4.80
2022-12-31T20:52:56.741Z,3.50
2022-12-31T20:58:06.331Z,4.70
2022-12-31T21:03:36.841Z,4.20
2022-12-31T21:08:43.310Z,9.20
2022-12-31T21:13:57.535Z,4.60
2022-12-31T21:19:10.147Z,4.80
2022-12-31T21:24:23.771Z,4.80
2022-12-31T21:29:34.950Z,5.90
2022-12-31T21:34:43.884Z,5.30
2022-12-31T21:39:50.904Z,24.70
2022-12-31T21:45:06.377Z,9.90
2022-12-31T21:50:16.339Z,32.40
2022-12-31T21:55:44.519Z,14.70
2022-12-31T22:01:28.348Z,8.70
2022-12-31T22:06:39.845Z,9.50
2022-12-31T22:11:46.704Z,7.90
2022-12-31T22:16:53.678Z,6.80
2022-12-31T22:22:00.569Z,6.70
2022-12-31T22:27:28.816Z,8.90
2022-12-31T22:32:34.697Z,14.40
2022-12-31T22:38:01.595Z,11.40
2022-12-31T22:43:08.757Z,9.50
2022-12-31T22:48:15.665Z,8.50
2022-12-31T22:53:22.684Z,9.00
2022-12-31T22:58:29.637Z,8.30
2022-12-31T23:03:38.272Z,7.00
2022-12-31T23:09:05.869Z,26.10
2022-12-31T23:14:35.853Z,36.30
2022-12-31T23:20:01.476Z,29.60
2022-12-31T23:25:09.490Z,40.60
2022-12-31T23:30:16.835Z,52.00
2022-12-31T23:35:23.917Z,50.30
2022-12-31T23:40:35.395Z,60.40
2022-12-31T23:45:45.121Z,62.80
2022-12-31T23:50:54.137Z,56.50
2022-12-31T23:56:13.889Z,56.70
